Pagrindinis puslapis
METAR-TAF:

METAR-TAF

Oro uostai :

Oro pajėgų bazė

Linšiopingas, Švedija

platuma: 58-24N, ilguma: 015-31E, Aukštis: 93 m

Dabartinis oras

Ataskaita buvo paskelbta 37 minutes, ne 03:20 UTC
Vėjas 8 kt iš Rytų
Temperatūra 0°C
Drėgmė 100%
Slėgis 1008 hPa
Matomumas: 9000 m
sniegas,

METAR: ESCF 190320Z AUTO 08008KT 9000 -SN OVC005/// 00/00 Q1008

Laikas: 05:57 (03:57 UTC)

Prognozė

Ataskaita buvo paskelbta 15 valandos ir 7 minutes, ne 12:50 UTC
Prognozė galioja nuo 18 metu 12 UTC su 18 metu 15 UTC
Matomumas: 1500 m
ne aukštis 1000 ft
sniegas
Tapsmas
nuo 18 metu 12 UTC su 18 metu 13 UTC
Matomumas: 3000 m
ne aukštis 2000 ft
sniegas
Laikinai
nuo 18 metu 13 UTC su 18 metu 15 UTC
Matomumas 10 km arba daugiau
Su prošvaistėmis ne aukštis 400 ft

TAF: ESCF 181250Z 1812/1815 1500 SN VV010 BECMG 1812/1813 3000 -SN VV020 TEMPO 1813/1815 9999 BKN004 RMK MIL

Orai ataskaitas ir orų prognozės (METAR, TAF).

turimą stotys yra geltonos ir raudonos taškus žemėlapyje.

Perkelti pele per norėdami pamatyti stoties vardą.

Tada spustelėkite, norėdami matyti oro stebėjimo ir prognozės.

Norėdami pakeisti žemėlapį: spustelėkite ant žalios mygtukų su juodo kryžiaus žemyn,; žalią mygtuką su brūkšneliu, jei norite nutolinti; arba žalių rodyklių gretimoms žemėlapius.


METAR-TAF: